Austin, TX (78710)

2:18 PM CST on December 27, 2014 (GMT -0600)
Eubank Acres | Change Station
CLOSE
Current Station
Personal Weather Station
Location: Austin, TX
Elevation: 690 ft
Nearby Weather Stations

Elev 690 ft 30.38 °N, 97.68 °W | Updated 38 seconds ago

Overcast
Overcast
46.3 °F
Feels Like 46 °F
N
3.0
Wind Variable Wind from NNE
Gusts 5.0 mph

Today
High -- | Low -- °F
--% Chance of Precip.
Yesterday
High -- | Low -- °F
Precip. -- in
7:25 AM 5:37 PM
Waxing Crescent, 39% visible
Pressure 30.13 in
Visibility 10.0 miles
Clouds Overcast 3000 ft
Windchill 46 °F
Dew Point 42 °F
Humidity 84%
Rainfall 0.02 in
Snow Depth Not available.
UV 1 out of 12
Pollen 8.80 out of 12
Air Quality Not available.
Flu Activity Not available.
METAR KEDC 271955Z AUTO 34018G22KT 10SM OVC030 08/03 A3013 RMK AO2

More Conditions Fewer Conditions

Pressure 30.13 in
Visibility 10.0 miles
Clouds Overcast 3000 ft
Windchill 46 °F
Dew Point 42 °F
Humidity 84%
Rainfall 0.02 in
Snow Depth Not available.
UV 1 out of 12
Pollen 8.80 out of 12
Air Quality Not available.
Flu Activity Not available.
METAR KEDC 271955Z AUTO 34018G22KT 10SM OVC030 08/03 A3013 RMK AO2

More Conditions Fewer Conditions

Nowcast | as of 11:59 am CST on December 27, 2014

Through 3 PM CST...expect patchy light rain and drizzle in the wake of a cold front. Afternoon rainfall amounts will be a trace to a few hundredths of an inch. Temperatures will be steady or slowly falling into the mid 40s to mid 50s...and wind chill indices will be mainly in the mid 30s to mid 40s.

×

10-Day Weather Forecast

Almanac

Astronomy

Dec. 27, 2014 Rise Set
Actual Time
Civil Twilight
Nautical Twilight
Astronomical Twilight
Moon
Length of Visible Light
Length of Day
Tomorrow will be .
, % of the Moon is Illuminated

Today's Extremes

State Highs State Lows

Community

WunderPhotos

Upload Photos

1,781,037 photos uploaded!

WunderBlogs® & News

Nearby

Air Quality

  Air Quality AQ Index Pollutant
Not available.

Snow Depth

Station Depth Elevation

Earthquake Activity

City Distance Mag. Time & Date
Minimum magnitude displayed is 2.5.

Coastal Water Temperatures

Place Temperature

Nearby Weather Stations